KSVE

Susanville Municipal Airport

Susanville, California, USA
METAR KSVE 191855Z AUTO 00000KT 10SM CLR 21/00 A3000 RMK AO2
Observed Flight Rules
Sep-19 @ 18:55 UTC (23 minutes ago) Visual Flight Rules
Visibility Clouds
10 miles
  • Clear skies
Temperatures Readings
Current 21°C / 70°F
Dewpoint 0°C / 32°F
Humidity 25%
Altimeter 30" Hg
Pressure 1016 hPa
Elevation 1263
METAR KSVE 191855Z AUTO 00000KT 10SM CLR 21/00 A3000 RMK AO2
Observed Flight Rules
Sep-19 @ 18:55 UTC
(23 minutes ago)
VFR
Clouds
  • Clear skies
Temperature Dewpoint
21°C / 70°F 0°C / 32°F
Humidity Altimeter Pressure
25% 30" Hg 1016 hPa